Time;durP1;ratioP1;P1;durP2;ratioP2;P2;SDS_P1;SDS_P2;PMS_P1;PMS_P2;Temp;Humidity;BMP_temperature;BMP_pressure;BME280_temperature;BME280_humidity;BME280_pressure;Samples;Min_cycle;Max_cycle;Signal;HPM_P1;HPM_P2
2022/01/17 00:01:08;;;;;;;535.60;267.38;;;-0.80;99.90;;;;;;5082280;28;20095;-79
2022/01/17 00:03:36;;;;;;;515.58;258.25;;;-2.60;99.90;;;;;;5082169;28;20305;-80
2022/01/17 00:06:05;;;;;;;524.55;260.70;;;-2.60;99.90;;;;;;5081510;28;20099;-80
2022/01/17 00:08:33;;;;;;;500.40;248.48;;;-2.80;99.90;;;;;;5081106;28;20031;-79
2022/01/17 00:11:00;;;;;;;473.60;234.48;;;-2.30;99.90;;;;;;5081154;28;20583;-80
2022/01/17 00:13:28;;;;;;;491.08;240.73;;;-2.60;99.90;;;;;;5063717;28;20027;-81
2022/01/17 00:16:03;;;;;;;494.80;241.10;;;-2.30;99.90;;;;;;5063573;28;20581;-79
2022/01/17 00:21:04;;;;;;;473.83;235.15;;;-2.70;99.90;;;;;;5082640;28;20232;-80
2022/01/17 00:23:30;;;;;;;482.85;246.13;;;-2.70;99.90;;;;;;5063572;28;20409;-80
2022/01/17 00:25:56;;;;;;;484.70;241.90;;;-2.80;99.90;;;;;;5082556;28;20105;-79
2022/01/17 00:28:21;;;;;;;516.88;258.55;;;-2.70;99.90;;;;;;5082692;28;20054;-79
2022/01/17 00:30:47;;;;;;;540.05;276.00;;;-2.80;99.90;;;;;;5082312;28;20032;-80
2022/01/17 00:33:14;;;;;;;553.15;280.63;;;0.80;99.90;;;;;;5064537;28;20394;-80
2022/01/17 00:35:40;;;;;;;535.15;271.83;;;-2.80;99.90;;;;;;5081523;28;20320;-80
2022/01/17 00:38:08;;;;;;;552.60;284.73;;;-2.90;99.90;;;;;;5063942;28;20721;-79
2022/01/17 00:40:36;;;;;;;551.95;283.35;;;-2.80;99.90;;;;;;5081143;28;20486;-80
2022/01/17 00:43:04;;;;;;;550.17;274.95;;;-2.10;99.90;;;;;;5080995;28;20028;-80
2022/01/17 00:45:32;;;;;;;548.70;275.40;;;-2.90;99.90;;;;;;5081203;28;20020;-80
2022/01/17 00:48:00;;;;;;;553.28;277.83;;;-2.90;99.90;;;;;;5080698;28;20024;-80
2022/01/17 00:50:28;;;;;;;562.22;282.08;;;-0.60;99.90;;;;;;5061713;28;20098;-80
2022/01/17 00:53:02;;;;;;;591.70;295.10;;;-1.80;99.90;;;;;;5062031;28;20031;-80
2022/01/17 00:55:32;;;;;;;599.38;302.23;;;-2.80;99.90;;;;;;5061759;28;20036;-80
2022/01/17 00:57:58;;;;;;;588.03;304.20;;;-2.90;99.90;;;;;;5062000;28;20016;-80
2022/01/17 01:00:24;;;;;;;577.72;291.00;;;-2.90;99.90;;;;;;5080233;28;20074;-80
2022/01/17 01:02:50;;;;;;;572.15;288.23;;;-2.90;99.90;;;;;;5061868;28;20028;-81
2022/01/17 01:05:16;;;;;;;588.80;292.38;;;-2.10;99.90;;;;;;5061867;28;20028;-81
2022/01/17 01:07:43;;;;;;;580.83;289.65;;;-2.90;99.90;;;;;;5061620;28;20024;-80
2022/01/17 01:10:15;;;;;;;572.35;288.48;;;-2.90;99.90;;;;;;5061999;28;20036;-80
2022/01/17 01:12:44;;;;;;;571.00;286.98;;;-3.00;99.90;;;;;;5062538;28;20016;-80
2022/01/17 01:15:19;;;;;;;569.33;285.15;;;-2.90;99.90;;;;;;5079829;28;20111;-80
2022/01/17 01:28:22;;;;;;;535.17;266.17;;;-3.10;99.90;;;;;;5079791;28;20027;-80
2022/01/17 01:30:52;;;;;;;546.15;269.77;;;-2.90;99.90;;;;;;5061228;28;20036;-80
2022/01/17 01:33:42;;;;;;;543.63;273.80;;;-2.90;99.90;;;;;;5061665;28;20024;-80
2022/01/17 01:36:10;;;;;;;554.40;272.48;;;-2.80;99.90;;;;;;5078954;28;20555;-80
2022/01/17 01:38:39;;;;;;;545.70;267.52;;;-2.80;99.90;;;;;;5061079;28;20032;-80
2022/01/17 01:41:04;;;;;;;555.35;273.13;;;-1.90;99.90;;;;;;5060838;28;20016;-80
2022/01/17 01:43:32;;;;;;;537.00;266.00;;;-2.80;99.90;;;;;;5079405;28;20035;-80
2022/01/17 01:46:01;;;;;;;551.33;275.40;;;-2.70;99.90;;;;;;5079397;28;20012;-80
2022/01/17 01:48:28;;;;;;;527.17;261.33;;;-2.70;99.90;;;;;;5060156;28;20020;-79
2022/01/17 01:50:54;;;;;;;524.50;261.70;;;-2.70;99.90;;;;;;5061345;28;20056;-80
2022/01/17 01:53:22;;;;;;;534.60;265.63;;;-2.70;99.90;;;;;;5079612;28;20016;-80
2022/01/17 01:55:51;;;;;;;536.97;267.88;;;-1.80;99.90;;;;;;5079887;28;20285;-79
2022/01/17 01:58:19;;;;;;;536.90;266.35;;;-1.30;99.90;;;;;;5079708;28;20020;-80
2022/01/17 02:00:48;;;;;;;539.50;267.98;;;-2.20;99.90;;;;;;5080165;28;20328;-80
2022/01/17 02:03:14;;;;;;;521.50;263.52;;;-2.50;99.90;;;;;;5079727;28;20023;-80
2022/01/17 02:05:42;;;;;;;525.38;260.92;;;-2.50;99.90;;;;;;5079916;28;20024;-80
2022/01/17 02:08:12;;;;;;;527.28;263.65;;;-1.80;99.90;;;;;;5061772;28;20020;-80
2022/01/17 02:10:48;;;;;;;526.33;261.33;;;-1.40;99.90;;;;;;5080741;28;20051;-80
2022/01/17 02:13:19;;;;;;;538.53;266.52;;;-2.40;99.90;;;;;;5063133;28;20020;-80
2022/01/17 02:15:47;;;;;;;500.50;247.57;;;-2.30;99.90;;;;;;5062889;28;20044;-80
2022/01/17 02:18:29;;;;;;;497.60;248.82;;;-2.30;99.90;;;;;;5062165;28;20119;-79
2022/01/17 02:23:40;;;;;;;494.25;252.90;;;-1.60;99.90;;;;;;5082287;28;20140;-80
2022/01/17 02:26:06;;;;;;;483.27;243.77;;;-2.20;99.90;;;;;;5091625;28;20024;-80
2022/01/17 02:28:33;;;;;;;482.20;243.35;;;-2.20;99.90;;;;;;5093644;28;20478;-79
2022/01/17 02:31:00;;;;;;;475.73;240.38;;;-2.20;99.90;;;;;;5094515;28;20028;-80
2022/01/17 02:33:27;;;;;;;473.67;235.40;;;-2.20;99.90;;;;;;5085970;28;20509;-80
2022/01/17 02:35:53;;;;;;;479.13;237.95;;;-2.10;99.90;;;;;;5081533;28;20035;-80
2022/01/17 02:38:19;;;;;;;479.92;240.45;;;-2.20;99.90;;;;;;5063198;28;20046;-80
2022/01/17 02:40:45;;;;;;;469.42;230.20;;;-2.20;99.90;;;;;;5081088;28;20024;-80
2022/01/17 02:43:13;;;;;;;475.85;240.38;;;-2.10;99.90;;;;;;5081229;28;20019;-80
2022/01/17 02:48:17;;;;;;;478.52;236.13;;;-1.90;99.90;;;;;;5080351;28;20024;-80
2022/01/17 02:50:43;;;;;;;480.85;240.10;;;-1.70;99.90;;;;;;5079907;28;20086;-80
2022/01/17 02:53:13;;;;;;;469.92;234.77;;;-2.00;99.90;;;;;;5062215;28;20020;-80
2022/01/17 02:55:55;;;;;;;476.55;235.38;;;-1.90;99.90;;;;;;5082421;28;20028;-80
2022/01/17 02:58:23;;;;;;;485.02;242.38;;;-1.90;99.90;;;;;;5086438;28;20282;-80
2022/01/17 03:00:53;;;;;;;474.05;241.68;;;-1.80;99.90;;;;;;5090286;28;20035;-81
2022/01/17 03:03:25;;;;;;;484.10;240.75;;;-1.80;99.90;;;;;;5074649;28;20320;-80
2022/01/17 03:05:56;;;;;;;497.63;247.20;;;-1.90;99.90;;;;;;5087591;28;20054;-80
2022/01/17 03:08:23;;;;;;;494.80;250.43;;;-1.80;99.90;;;;;;5065211;28;20073;-80
2022/01/17 03:10:50;;;;;;;480.35;244.27;;;-1.80;99.90;;;;;;5064580;28;20240;-80
2022/01/17 03:13:19;;;;;;;500.65;248.98;;;-1.70;99.90;;;;;;5083463;28;20627;-80
2022/01/17 03:15:53;;;;;;;480.52;240.93;;;-1.20;99.90;;;;;;5065802;28;20343;-80
2022/01/17 03:18:24;;;;;;;471.75;230.10;;;-1.70;99.90;;;;;;5065526;28;20075;-80
2022/01/17 03:20:52;;;;;;;454.38;223.50;;;-1.70;99.90;;;;;;5083450;28;20474;-80
2022/01/17 03:23:18;;;;;;;446.58;223.65;;;-1.60;99.90;;;;;;5082876;28;20047;-80
2022/01/17 03:25:44;;;;;;;413.15;209.27;;;-1.70;99.90;;;;;;5082664;28;20032;-80
2022/01/17 03:28:10;;;;;;;420.58;206.35;;;-1.60;99.90;;;;;;5082592;28;20115;-80
2022/01/17 03:30:39;;;;;;;415.08;200.43;;;-0.80;99.90;;;;;;5082470;28;20256;-80
2022/01/17 03:33:10;;;;;;;371.35;177.57;;;-1.60;99.90;;;;;;5064121;28;20035;-80
2022/01/17 03:35:38;;;;;;;358.02;169.00;;;-2.30;99.90;;;;;;5082458;28;20378;-80
2022/01/17 03:38:06;;;;;;;359.30;176.18;;;-1.60;99.90;;;;;;5082220;28;20104;-81
2022/01/17 03:40:32;;;;;;;391.02;192.48;;;-1.50;99.90;;;;;;5064244;28;20020;-80
2022/01/17 03:42:58;;;;;;;426.15;204.50;;;-1.50;99.90;;;;;;5082627;28;20070;-80
2022/01/17 03:45:24;;;;;;;420.98;208.43;;;-1.50;99.90;;;;;;5081440;28;20552;-80
2022/01/17 03:47:50;;;;;;;408.73;199.60;;;-1.50;99.90;;;;;;5063949;28;20096;-80
2022/01/17 03:50:20;;;;;;;396.50;196.52;;;-2.10;99.70;;;;;;5062496;28;20052;-80
2022/01/17 03:52:49;;;;;;;399.38;193.00;;;-1.30;99.90;;;;;;5063906;28;20493;-80
2022/01/17 03:55:20;;;;;;;385.48;191.98;;;-1.50;99.90;;;;;;5063298;28;20027;-80
2022/01/17 03:57:51;;;;;;;398.17;197.10;;;-1.50;99.90;;;;;;5081808;28;20754;-80
2022/01/17 04:00:27;;;;;;;389.13;187.52;;;-1.40;99.90;;;;;;5082669;28;20012;-80
2022/01/17 04:02:54;;;;;;;370.35;182.27;;;-1.60;99.80;;;;;;5082776;28;20025;-80
2022/01/17 04:05:21;;;;;;;401.38;192.35;;;-1.50;99.80;;;;;;5081898;28;20035;-80
2022/01/17 04:07:46;;;;;;;393.48;190.43;;;-1.40;99.90;;;;;;5081394;28;20035;-79
2022/01/17 04:10:13;;;;;;;417.45;205.60;;;-1.40;99.90;;;;;;5081092;28;20032;-80
2022/01/17 04:12:40;;;;;;;411.08;200.95;;;-1.40;99.90;;;;;;5082425;28;20035;-80
2022/01/17 04:15:09;;;;;;;398.02;197.50;;;-1.40;99.90;;;;;;5064412;28;20545;-82
2022/01/17 04:17:43;;;;;;;404.80;200.32;;;-1.30;99.90;;;;;;5082061;28;20394;-79
2022/01/17 04:20:27;;;;;;;388.83;189.93;;;-1.40;99.90;;;;;;5082688;28;20413;-80
2022/01/17 04:22:57;;;;;;;395.00;193.65;;;-1.40;99.90;;;;;;5083090;28;20694;-80
2022/01/17 04:25:29;;;;;;;391.67;192.38;;;-1.40;99.90;;;;;;5064697;28;20056;-80
2022/01/17 04:27:56;;;;;;;391.30;191.68;;;-1.40;99.90;;;;;;5064523;28;20020;-80
2022/01/17 04:30:22;;;;;;;385.70;191.45;;;-1.40;99.90;;;;;;5088458;28;20088;-79
2022/01/17 04:32:51;;;;;;;363.35;177.02;;;-1.00;99.90;;;;;;5089700;28;20020;-81
2022/01/17 04:35:24;;;;;;;389.88;180.48;;;-1.40;99.90;;;;;;5071103;28;20407;-80
2022/01/17 04:38:01;;;;;;;388.15;193.10;;;-1.40;99.90;;;;;;5071225;28;20085;-80
2022/01/17 04:40:33;;;;;;;;;;;-1.40;99.90;;;;;;5083346;28;20031;-80
2022/01/17 04:42:59;;;;;;;385.23;185.93;;;-1.40;99.90;;;;;;5049086;28;19909;-79
2022/01/17 04:45:29;;;;;;;385.90;187.55;;;-1.40;99.90;;;;;;5083075;28;20020;-80
2022/01/17 04:47:55;;;;;;;393.58;187.20;;;-1.50;99.90;;;;;;5082482;28;20095;-80
2022/01/17 04:50:29;;;;;;;390.77;188.30;;;-1.50;99.90;;;;;;5082077;28;20119;-80
2022/01/17 04:53:00;;;;;;;390.90;192.70;;;-1.50;99.90;;;;;;5063980;28;20414;-80
2022/01/17 04:55:27;;;;;;;396.25;195.07;;;-1.40;99.90;;;;;;5081673;28;20074;-80
2022/01/17 04:57:55;;;;;;;399.80;195.85;;;-1.50;99.90;;;;;;5081972;28;20059;-80
2022/01/17 05:00:22;;;;;;;394.70;192.05;;;-1.10;99.90;;;;;;5063685;28;20564;-80
2022/01/17 05:02:49;;;;;;;419.83;198.70;;;-1.50;99.90;;;;;;5082066;28;20028;-81
2022/01/17 05:05:17;;;;;;;402.40;195.07;;;-1.50;99.90;;;;;;5081361;28;20521;-80
2022/01/17 05:07:43;;;;;;;404.95;200.32;;;-1.50;99.90;;;;;;5081540;28;20465;-79
2022/01/17 05:10:15;;;;;;;401.33;197.57;;;-1.50;99.90;;;;;;5058799;28;20651;-80
2022/01/17 05:12:41;;;;;;;404.05;196.90;;;-1.70;99.90;;;;;;5061773;28;20021;-80
2022/01/17 05:15:32;;;;;;;424.17;202.20;;;-1.60;99.90;;;;;;5063526;28;20127;-80
2022/01/17 05:20:37;;;;;;;397.67;194.77;;;-1.70;99.90;;;;;;5071681;28;20041;-80
2022/01/17 05:23:03;;;;;;;403.98;191.75;;;-2.10;99.90;;;;;;5067466;28;20032;-80
2022/01/17 05:25:31;;;;;;;400.05;190.52;;;-1.60;99.90;;;;;;5061960;28;20047;-80
2022/01/17 05:27:57;;;;;;;409.13;197.15;;;-1.90;99.90;;;;;;5060703;28;20399;-79
2022/01/17 05:30:24;;;;;;;390.80;186.48;;;-1.80;99.90;;;;;;5060850;28;20025;-80
2022/01/17 05:32:52;;;;;;;385.27;185.85;;;-0.90;99.90;;;;;;5058828;28;20118;-80
2022/01/17 05:35:19;;;;;;;394.60;189.15;;;-1.70;99.90;;;;;;5058135;28;20552;-80
2022/01/17 05:37:46;;;;;;;407.30;191.45;;;-2.00;99.90;;;;;;5059578;28;20013;-80
2022/01/17 05:40:17;;;;;;;388.77;187.63;;;-1.70;99.90;;;;;;5059297;28;20031;-80
2022/01/17 05:42:43;;;;;;;387.70;188.95;;;-1.30;99.90;;;;;;5058968;28;20024;-80
2022/01/17 05:45:10;;;;;;;395.63;186.77;;;-3.00;99.90;;;;;;5059495;28;20223;-80
2022/01/17 05:47:54;;;;;;;373.13;180.95;;;-1.70;99.90;;;;;;5059192;28;20024;-80
2022/01/17 05:50:20;;;;;;;379.23;174.52;;;-1.30;99.90;;;;;;5058987;28;20124;-80
2022/01/17 05:52:48;;;;;;;377.55;178.73;;;-1.70;99.90;;;;;;5057854;28;20146;-80
2022/01/17 05:55:15;;;;;;;369.83;174.23;;;-2.10;99.90;;;;;;5058900;28;20265;-80
2022/01/17 05:57:41;;;;;;;378.02;175.18;;;-1.80;99.90;;;;;;5058282;28;20297;-80
2022/01/17 06:00:11;;;;;;;360.17;170.80;;;-0.60;99.90;;;;;;5057877;28;20142;-80
2022/01/17 06:02:37;;;;;;;364.70;172.93;;;-1.80;99.90;;;;;;5059113;28;20028;-80
2022/01/17 06:05:04;;;;;;;390.15;180.95;;;-1.80;99.90;;;;;;5057903;28;20094;-80
2022/01/17 06:07:32;;;;;;;366.88;172.30;;;1.30;99.90;;;;;;5059344;28;20063;-80
2022/01/17 06:09:58;;;;;;;369.83;173.02;;;-1.70;99.90;;;;;;5057501;28;20123;-80
2022/01/17 06:12:24;;;;;;;376.45;172.13;;;-1.70;99.90;;;;;;5057947;28;20119;-79
2022/01/17 06:14:49;;;;;;;380.13;176.73;;;-1.70;99.90;;;;;;5059206;28;20702;-80
2022/01/17 06:17:18;;;;;;;379.33;171.65;;;-0.60;99.90;;;;;;5057633;28;20031;-80
2022/01/17 06:19:45;;;;;;;360.38;170.23;;;-1.70;99.90;;;;;;5058458;28;20126;-80
2022/01/17 06:22:12;;;;;;;349.25;163.05;;;-1.70;99.90;;;;;;5058850;28;20197;-80
2022/01/17 06:24:39;;;;;;;383.02;174.23;;;-1.80;99.90;;;;;;5058738;28;20265;-80
2022/01/17 06:27:05;;;;;;;376.95;170.82;;;-1.80;99.90;;;;;;5073378;28;20146;-80
2022/01/17 06:29:32;;;;;;;355.30;164.30;;;-1.80;99.90;;;;;;5073686;28;20024;-80
2022/01/17 06:32:07;;;;;;;355.60;164.20;;;-1.80;99.90;;;;;;5075708;28;20025;-80
2022/01/17 06:34:33;;;;;;;341.88;157.40;;;-1.70;99.90;;;;;;5064717;28;20051;-80
2022/01/17 06:37:01;;;;;;;338.75;159.57;;;-1.40;99.90;;;;;;5062383;28;20399;-80
2022/01/17 06:39:27;;;;;;;340.52;157.45;;;-4.70;99.90;;;;;;5061441;28;20224;-80
2022/01/17 06:41:53;;;;;;;357.33;162.40;;;-1.70;99.90;;;;;;5060038;28;20399;-80
2022/01/17 06:44:19;;;;;;;353.35;164.02;;;-1.60;99.90;;;;;;5058762;28;20020;-81
2022/01/17 06:46:45;;;;;;;340.98;158.70;;;-1.50;99.90;;;;;;5059570;28;20024;-80
2022/01/17 06:49:11;;;;;;;346.58;161.98;;;-1.60;99.90;;;;;;5059817;28;20104;-80
2022/01/17 06:51:41;;;;;;;357.67;162.00;;;-1.60;99.90;;;;;;5057996;28;20060;-80
2022/01/17 06:54:06;;;;;;;354.40;162.25;;;-1.50;99.90;;;;;;5059150;28;20016;-80
2022/01/17 06:56:32;;;;;;;362.98;168.27;;;-1.50;99.90;;;;;;5059900;28;20103;-80
2022/01/17 06:58:58;;;;;;;366.65;170.48;;;-1.40;99.90;;;;;;5058235;28;20435;-80
2022/01/17 07:01:24;;;;;;;379.23;173.57;;;-1.40;99.90;;;;;;5059775;28;20032;-80
2022/01/17 07:03:51;;;;;;;369.40;172.82;;;-1.10;99.90;;;;;;5059644;28;20027;-80
2022/01/17 07:06:17;;;;;;;357.67;168.73;;;-2.50;99.90;;;;;;5058131;28;20078;-80
2022/01/17 07:08:45;;;;;;;368.75;173.18;;;-1.20;99.90;;;;;;5061015;28;20017;-80
2022/01/17 07:11:12;;;;;;;354.42;165.52;;;-1.20;99.90;;;;;;5060762;28;20510;-80
2022/01/17 07:13:37;;;;;;;364.63;170.43;;;-1.20;99.90;;;;;;5061355;28;20382;-80
2022/01/17 07:16:04;;;;;;;353.73;162.18;;;-1.10;99.90;;;;;;5079780;28;20502;-80
2022/01/17 07:18:29;;;;;;;359.92;171.23;;;-1.10;99.90;;;;;;5079364;28;20233;-80
2022/01/17 07:20:58;;;;;;;355.65;169.15;;;-1.10;99.90;;;;;;5061364;28;20233;-79
2022/01/17 07:23:26;;;;;;;374.40;179.00;;;-0.20;99.90;;;;;;5061720;28;20020;-80
2022/01/17 07:25:52;;;;;;;378.80;177.95;;;-1.10;99.90;;;;;;5080453;28;20024;-79
2022/01/17 07:28:18;;;;;;;371.10;174.77;;;0.40;99.90;;;;;;5082308;28;20027;-80
2022/01/17 07:30:44;;;;;;;376.33;181.50;;;-1.20;99.70;;;;;;5066388;28;20599;-80
2022/01/17 07:33:10;;;;;;;372.80;177.82;;;-0.80;99.90;;;;;;5084905;28;20587;-80
2022/01/17 07:35:39;;;;;;;375.90;176.65;;;-1.10;99.90;;;;;;5083237;28;20220;-80
2022/01/17 07:38:09;;;;;;;387.42;181.38;;;-1.10;99.90;;;;;;5065034;28;20690;-79
2022/01/17 07:40:35;;;;;;;392.48;185.00;;;-1.00;99.80;;;;;;5087442;28;20020;-80
2022/01/17 07:43:03;;;;;;;393.95;189.23;;;-1.00;99.80;;;;;;5068074;28;20024;-80
2022/01/17 07:45:32;;;;;;;409.13;199.07;;;-0.90;99.70;;;;;;5086838;28;20493;-80
2022/01/17 07:48:12;;;;;;;407.10;196.35;;;-0.90;99.90;;;;;;5069601;28;20325;-79
2022/01/17 07:50:39;;;;;;;404.48;196.15;;;-0.90;99.90;;;;;;5083605;28;20278;-80
2022/01/17 07:53:04;;;;;;;413.73;200.45;;;-0.90;99.80;;;;;;5082915;28;20012;-80
2022/01/17 07:55:30;;;;;;;402.83;195.20;;;-0.70;99.70;;;;;;5082922;28;20245;-80
2022/01/17 07:57:57;;;;;;;405.95;196.25;;;-0.70;99.90;;;;;;5083009;28;20254;-81
2022/01/17 08:00:26;;;;;;;410.58;199.50;;;-0.60;99.90;;;;;;5082409;28;20052;-81
2022/01/17 08:02:56;;;;;;;404.50;201.85;;;-0.50;99.80;;;;;;5064170;28;20145;-80
2022/01/17 08:05:22;;;;;;;385.10;187.68;;;-0.30;99.70;;;;;;5064269;28;20229;-80
2022/01/17 08:07:48;;;;;;;407.15;199.68;;;-0.20;99.40;;;;;;5063500;28;20328;-80
2022/01/17 08:10:14;;;;;;;394.85;196.43;;;-0.40;98.90;;;;;;5081599;28;20648;-80
2022/01/17 08:12:46;;;;;;;413.65;207.25;;;-0.10;98.80;;;;;;5082190;28;20032;-80
2022/01/17 08:15:12;;;;;;;420.33;204.45;;;-0.50;98.30;;;;;;5063865;28;20027;-80
2022/01/17 08:17:38;;;;;;;396.27;195.00;;;-0.30;98.70;;;;;;5082221;28;20031;-80
2022/01/17 08:20:05;;;;;;;397.38;194.45;;;-0.20;98.50;;;;;;5081905;28;20538;-80
2022/01/17 08:22:31;;;;;;;390.83;192.25;;;-0.20;98.50;;;;;;5081485;28;20042;-79
2022/01/17 08:24:58;;;;;;;395.88;189.10;;;-0.20;98.70;;;;;;5081659;28;20107;-79
2022/01/17 08:27:26;;;;;;;382.58;186.30;;;-0.70;98.40;;;;;;5082227;28;20112;-80
2022/01/17 08:29:52;;;;;;;379.42;181.13;;;-0.30;98.40;;;;;;5063432;28;20035;-80
2022/01/17 08:32:18;;;;;;;364.65;179.00;;;-0.20;98.40;;;;;;5080831;28;20427;-80
2022/01/17 08:34:44;;;;;;;371.73;183.45;;;-0.10;98.60;;;;;;5082192;28;20093;-80
2022/01/17 08:37:09;;;;;;;361.80;176.18;;;0.00;98.30;;;;;;5081140;28;20028;-81
2022/01/17 08:39:38;;;;;;;369.90;178.65;;;0.10;98.10;;;;;;5063101;28;20173;-80
2022/01/17 08:42:10;;;;;;;364.85;171.10;;;0.10;98.10;;;;;;5081337;28;20498;-80
2022/01/17 08:44:38;;;;;;;357.67;175.63;;;0.20;98.00;;;;;;5063498;28;20580;-80
2022/01/17 08:47:04;;;;;;;341.85;165.63;;;0.30;98.10;;;;;;5081748;28;20651;-80
2022/01/17 08:49:30;;;;;;;344.52;163.07;;;0.40;97.80;;;;;;5081787;28;20032;-79
2022/01/17 08:51:57;;;;;;;349.02;169.70;;;0.50;97.30;;;;;;5081516;28;20047;-80
2022/01/17 08:54:25;;;;;;;364.88;183.38;;;0.50;97.10;;;;;;5046301;28;20178;-81
2022/01/17 08:56:51;;;;;;;376.65;183.30;;;0.60;97.40;;;;;;5081352;28;20049;-81
2022/01/17 08:59:17;;;;;;;377.90;185.77;;;0.60;97.30;;;;;;5082081;28;20409;-81
2022/01/17 09:01:43;;;;;;;370.10;180.27;;;0.70;97.10;;;;;;5064061;28;20035;-80
2022/01/17 09:04:13;;;;;;;380.38;187.27;;;0.70;97.00;;;;;;5084473;28;20523;-81
2022/01/17 09:06:40;;;;;;;369.95;181.18;;;0.80;96.80;;;;;;5074038;28;20039;-80
2022/01/17 09:09:06;;;;;;;381.17;195.27;;;0.90;96.70;;;;;;5074311;28;20062;-81
2022/01/17 09:11:31;;;;;;;402.60;197.95;;;0.80;96.30;;;;;;5074334;28;20032;-81
2022/01/17 09:13:57;;;;;;;372.42;188.23;;;2.80;97.00;;;;;;5087251;28;20016;-80
2022/01/17 09:16:23;;;;;;;365.67;179.98;;;1.00;96.40;;;;;;5083808;28;20271;-81
2022/01/17 09:18:50;;;;;;;356.70;179.93;;;1.00;96.30;;;;;;5064426;28;20027;-80
2022/01/17 09:21:16;;;;;;;352.92;175.63;;;1.10;96.10;;;;;;5063255;28;20031;-80
2022/01/17 09:23:42;;;;;;;367.73;179.60;;;1.20;95.90;;;;;;5080806;28;20368;-81
2022/01/17 09:26:08;;;;;;;386.98;191.95;;;1.30;95.60;;;;;;5062488;28;20024;-81
2022/01/17 09:28:34;;;;;;;433.40;209.18;;;1.40;95.60;;;;;;5062865;28;20506;-80
2022/01/17 09:31:00;;;;;;;442.45;213.65;;;1.50;95.60;;;;;;5080791;28;20051;-81
2022/01/17 09:33:26;;;;;;;396.95;199.55;;;1.60;95.50;;;;;;5062973;28;20047;-81
2022/01/17 09:35:52;;;;;;;401.65;202.38;;;1.60;95.40;;;;;;5062143;28;20514;-81
2022/01/17 09:38:18;;;;;;;423.70;212.25;;;1.60;95.20;;;;;;5062920;28;20055;-80
2022/01/17 09:40:44;;;;;;;445.92;225.00;;;1.60;95.00;;;;;;5080137;28;20024;-81
2022/01/17 09:43:11;;;;;;;373.27;192.30;;;1.60;95.00;;;;;;5080160;28;20032;-80
2022/01/17 09:45:37;;;;;;;369.30;182.23;;;1.60;94.80;;;;;;5080978;28;20091;-80
2022/01/17 09:48:21;;;;;;;358.02;177.73;;;1.40;94.50;;;;;;5080683;28;20557;-80
2022/01/17 09:51:08;;;;;;;360.98;178.38;;;2.00;95.10;;;;;;5062211;28;20130;-80
2022/01/17 09:53:38;;;;;;;365.13;179.50;;;1.60;94.80;;;;;;5062369;28;20032;-80
2022/01/17 09:56:08;;;;;;;354.83;173.93;;;1.60;94.40;;;;;;5063390;28;20065;-80
2022/01/17 09:58:36;;;;;;;423.50;204.57;;;1.90;94.50;;;;;;5080609;28;20725;-81
2022/01/17 10:01:03;;;;;;;342.55;166.60;;;2.10;94.00;;;;;;5080666;28;20082;-81
2022/01/17 10:03:30;;;;;;;346.52;166.45;;;2.20;93.50;;;;;;5080452;28;20118;-81
2022/01/17 10:05:57;;;;;;;341.23;166.85;;;2.40;93.30;;;;;;5080782;28;20054;-81
2022/01/17 10:08:24;;;;;;;345.63;172.95;;;2.70;93.00;;;;;;5079926;28;20474;-81
2022/01/17 10:11:00;;;;;;;358.75;174.77;;;3.20;92.50;;;;;;5080781;28;20068;-81
2022/01/17 10:13:44;;;;;;;356.67;177.35;;;2.90;92.20;;;;;;5063644;28;20093;-80
2022/01/17 10:16:20;;;;;;;356.73;179.15;;;3.50;92.00;;;;;;5063166;28;20399;-81
2022/01/17 10:18:53;;;;;;;362.92;179.68;;;3.60;90.90;;;;;;5081036;28;20136;-80
2022/01/17 10:21:35;;;;;;;359.85;180.70;;;3.90;90.90;;;;;;5062033;28;20027;-80
2022/01/17 10:34:54;;;;;;;351.13;178.68;;;4.70;88.70;;;;;;5082161;28;20085;-81
2022/01/17 10:37:23;;;;;;;359.40;184.68;;;4.80;87.30;;;;;;5063286;28;20813;-80
2022/01/17 10:40:08;;;;;;;350.40;180.15;;;5.00;86.70;;;;;;5062655;28;20374;-80
2022/01/17 10:42:42;;;;;;;346.88;180.10;;;5.20;85.50;;;;;;5080307;28;20534;-82
2022/01/17 10:45:22;;;;;;;342.42;177.50;;;5.30;85.30;;;;;;5081210;28;20032;-79
2022/01/17 10:47:51;;;;;;;341.80;177.23;;;5.40;84.80;;;;;;5080467;28;20019;-80
2022/01/17 10:50:20;;;;;;;336.98;172.52;;;5.50;83.30;;;;;;5080976;28;20028;-80
2022/01/17 10:52:51;;;;;;;334.63;172.70;;;5.70;83.30;;;;;;5062682;28;20039;-80
2022/01/17 10:55:22;;;;;;;327.80;169.10;;;5.90;82.50;;;;;;5080727;28;20016;-79
2022/01/17 10:57:57;;;;;;;327.17;167.68;;;6.10;83.10;;;;;;5062867;28;20096;-80
2022/01/17 11:00:25;;;;;;;319.08;166.48;;;6.20;81.70;;;;;;5080847;28;20501;-80
2022/01/17 11:02:57;;;;;;;320.38;163.98;;;6.40;80.30;;;;;;5081486;28;20055;-80
2022/01/17 11:05:23;;;;;;;299.60;156.07;;;6.40;79.50;;;;;;5081028;28;20079;-79
2022/01/17 11:07:52;;;;;;;304.58;154.18;;;6.60;79.40;;;;;;5062464;28;20048;-80
2022/01/17 11:10:31;;;;;;;303.73;155.23;;;6.70;79.10;;;;;;5080604;28;20383;-80
2022/01/17 11:13:02;;;;;;;311.65;157.80;;;6.80;78.00;;;;;;5080172;28;20024;-80
2022/01/17 11:15:32;;;;;;;292.48;149.05;;;6.80;76.50;;;;;;5080461;28;20032;-79
2022/01/17 11:18:03;;;;;;;294.25;147.30;;;6.90;78.80;;;;;;5079819;28;20012;-80
2022/01/17 11:20:29;;;;;;;306.25;154.38;;;7.00;78.80;;;;;;5083157;28;20048;-80
2022/01/17 11:22:58;;;;;;;290.38;150.25;;;7.00;78.90;;;;;;5084116;28;20097;-81
2022/01/17 11:25:28;;;;;;;287.85;145.80;;;7.10;78.50;;;;;;5083532;28;20385;-80
2022/01/17 11:27:57;;;;;;;282.85;145.10;;;7.20;77.90;;;;;;5085037;28;20020;-80
2022/01/17 11:30:23;;;;;;;280.42;143.57;;;7.30;77.30;;;;;;5085634;28;20553;-80
2022/01/17 11:32:51;;;;;;;273.55;140.45;;;7.30;75.40;;;;;;5085178;28;20031;-79
2022/01/17 11:35:20;;;;;;;267.63;139.30;;;7.40;74.70;;;;;;5087542;28;20085;-80
2022/01/17 11:38:05;;;;;;;281.05;147.77;;;7.50;74.80;;;;;;5086509;28;20016;-80
2022/01/17 11:40:36;;;;;;;291.48;148.93;;;7.60;74.00;;;;;;5087178;28;20026;-80
2022/01/17 11:43:24;;;;;;;297.00;153.90;;;7.60;74.00;;;;;;5086201;28;20077;-80
2022/01/17 11:45:52;;;;;;;306.38;163.27;;;7.70;73.20;;;;;;5087302;28;20016;-79
2022/01/17 11:48:25;;;;;;;332.75;176.68;;;7.40;73.20;;;;;;5088731;28;20058;-79
2022/01/17 11:50:54;;;;;;;351.02;190.02;;;7.20;74.80;;;;;;5075829;28;20066;-80
2022/01/17 11:53:22;;;;;;;369.17;197.38;;;8.80;76.70;;;;;;5095237;28;20250;-79
2022/01/17 11:55:50;;;;;;;365.15;195.85;;;7.00;75.90;;;;;;5093775;28;20028;-80
2022/01/17 11:58:31;;;;;;;368.23;200.13;;;7.10;76.30;;;;;;5084863;28;20031;-80
2022/01/17 12:01:02;;;;;;;356.02;194.00;;;6.90;75.50;;;;;;5084357;28;20032;-79
2022/01/17 12:03:49;;;;;;;381.55;202.98;;;6.90;76.20;;;;;;5083610;28;20091;-80
2022/01/17 12:06:34;;;;;;;381.90;208.80;;;7.10;75.00;;;;;;5083129;28;20209;-80
2022/01/17 12:09:24;;;;;;;388.50;209.88;;;7.10;75.80;;;;;;5083124;28;20518;-80
2022/01/17 12:11:54;;;;;;;359.52;193.48;;;6.90;75.20;;;;;;5064606;28;20054;-80
2022/01/17 12:14:30;;;;;;;364.05;193.85;;;7.00;76.40;;;;;;5082238;28;20521;-80
2022/01/17 12:17:23;;;;;;;380.05;199.23;;;7.10;75.60;;;;;;5082359;28;20035;-80
2022/01/17 12:20:04;;;;;;;351.98;190.02;;;7.10;74.80;;;;;;5063471;28;20139;-79
2022/01/17 12:22:50;;;;;;;375.30;198.10;;;7.10;75.20;;;;;;5064194;28;20419;-80
2022/01/17 12:25:24;;;;;;;366.80;198.38;;;7.20;75.60;;;;;;5082266;28;20631;-80
2022/01/17 12:28:11;;;;;;;367.42;198.07;;;7.30;75.30;;;;;;5063843;28;20028;-79
2022/01/17 12:30:57;;;;;;;365.08;198.18;;;7.40;74.30;;;;;;5081951;28;20032;-79
2022/01/17 12:33:40;;;;;;;355.83;188.17;;;7.40;74.60;;;;;;5064328;28;20020;-79
2022/01/17 12:36:25;;;;;;;337.40;177.88;;;7.40;74.30;;;;;;5064103;28;20991;-80
2022/01/17 12:38:51;;;;;;;332.85;170.25;;;7.40;73.60;;;;;;5081686;28;20070;-79
2022/01/17 12:41:39;;;;;;;327.52;173.18;;;7.50;73.10;;;;;;5046370;28;20032;-79
2022/01/17 12:44:20;;;;;;;306.58;162.70;;;7.50;73.10;;;;;;5082049;28;20444;-79
2022/01/17 12:46:49;;;;;;;316.35;162.55;;;7.50;72.30;;;;;;5082050;28;20042;-79
2022/01/17 12:49:16;;;;;;;326.10;165.43;;;7.70;71.60;;;;;;5081988;28;20673;-79
2022/01/17 12:51:45;;;;;;;315.40;165.50;;;7.70;71.00;;;;;;5082164;28;20036;-79
2022/01/17 12:54:12;;;;;;;355.20;191.35;;;7.70;71.40;;;;;;5081323;28;20567;-79